Time;durP1;ratioP1;P1;durP2;ratioP2;P2;SDS_P1;SDS_P2;PMS_P1;PMS_P2;Temp;Humidity;BMP_temperature;BMP_pressure;BME280_temperature;BME280_humidity;BME280_pressure;Samples;Min_cycle;Max_cycle;Signal;HPM_P1;HPM_P2
2021/12/12 00:01:40;;;;;;;57.10;42.83;;;3.80;99.90;;;;;;4965728;28;87543;-34
2021/12/12 00:04:13;;;;;;;66.57;44.42;;;3.90;99.90;;;;;;4997429;28;90574;-34
2021/12/12 00:06:57;;;;;;;60.55;44.35;;;3.90;99.90;;;;;;4965130;28;88700;-35
2021/12/12 00:09:34;;;;;;;66.05;45.50;;;3.90;99.90;;;;;;4980803;28;88083;-32
2021/12/12 00:12:03;;;;;;;67.30;46.58;;;4.00;99.90;;;;;;4965822;28;88981;-34
2021/12/12 00:14:32;;;;;;;73.07;45.50;;;4.00;99.90;;;;;;4965277;28;89966;-39
2021/12/12 00:16:58;;;;;;;73.72;46.22;;;4.00;99.90;;;;;;4964667;28;89979;-32
2021/12/12 00:19:26;;;;;;;63.53;45.20;;;3.90;99.90;;;;;;4965691;28;88938;-37
2021/12/12 00:21:55;;;;;;;68.13;48.23;;;4.00;99.90;;;;;;4965689;28;87754;-35
2021/12/12 00:24:21;;;;;;;64.28;46.80;;;3.90;99.90;;;;;;4965523;28;90328;-38
2021/12/12 00:26:50;;;;;;;63.97;44.40;;;3.90;99.90;;;;;;4964794;28;88340;-35
2021/12/12 00:29:18;;;;;;;65.97;44.15;;;3.90;99.90;;;;;;4965038;28;88444;-33
2021/12/12 00:31:46;;;;;;;66.27;48.83;;;4.00;99.90;;;;;;4964582;28;88799;-39
2021/12/12 00:34:12;;;;;;;58.43;46.13;;;4.00;99.90;;;;;;4965274;28;90528;-34
2021/12/12 00:36:41;;;;;;;63.47;47.17;;;3.90;99.90;;;;;;4980480;28;91262;-37
2021/12/12 00:39:17;;;;;;;;;;;3.90;99.90;;;;;;4997400;28;88628;-38
2021/12/12 00:41:46;;;;;;;58.72;43.15;;;3.90;99.90;;;;;;4999570;28;88981;-36
2021/12/12 00:44:14;;;;;;;52.78;43.20;;;3.90;99.90;;;;;;4965356;28;89901;-37
2021/12/12 00:46:40;;;;;;;60.08;45.63;;;3.90;99.90;;;;;;4964503;28;89517;-34
2021/12/12 00:49:06;;;;;;;64.57;43.53;;;3.90;99.90;;;;;;4965052;28;88585;-34
2021/12/12 00:51:34;;;;;;;53.92;40.17;;;4.00;99.90;;;;;;4997546;28;87856;-35
2021/12/12 00:54:01;;;;;;;63.95;45.78;;;4.00;99.90;;;;;;4965152;28;90402;-35
2021/12/12 00:56:27;;;;;;;66.60;43.85;;;4.00;99.90;;;;;;4965413;28;89492;-36
2021/12/12 00:58:53;;;;;;;67.95;44.55;;;4.00;99.90;;;;;;4964826;28;87871;-36
2021/12/12 01:01:34;;;;;;;59.42;42.92;;;3.90;99.90;;;;;;4964451;28;88811;-32
2021/12/12 01:04:27;;;;;;;58.65;42.72;;;3.90;99.90;;;;;;4997429;28;90697;-37
2021/12/12 01:06:59;;;;;;;56.17;39.55;;;4.00;99.90;;;;;;4961367;28;87950;-36
2021/12/12 01:09:33;;;;;;;67.68;44.25;;;4.00;99.90;;;;;;4965566;28;89642;-33
2021/12/12 01:12:04;;;;;;;57.50;43.63;;;4.00;99.90;;;;;;4997032;28;88765;-35
2021/12/12 01:14:35;;;;;;;63.80;42.85;;;3.90;99.90;;;;;;4965097;28;88948;-36
2021/12/12 01:17:12;;;;;;;56.83;41.22;;;3.90;99.90;;;;;;4996873;28;91405;-35
2021/12/12 01:24:43;;;;;;;61.78;40.20;;;4.10;99.90;;;;;;4929485;28;88846;-35
2021/12/12 01:27:09;;;;;;;57.58;40.03;;;4.10;99.90;;;;;;4929096;28;88354;-34
2021/12/12 01:29:35;;;;;;;53.90;40.00;;;4.00;99.90;;;;;;4928789;28;87853;-35
2021/12/12 01:32:04;;;;;;;49.08;39.30;;;4.00;99.90;;;;;;4928967;28;87487;-34
2021/12/12 01:34:32;;;;;;;52.17;40.50;;;4.10;99.90;;;;;;4928737;28;90169;-34
2021/12/12 01:39:34;;;;;;;53.47;37.35;;;4.10;99.90;;;;;;4944024;28;87834;-31
2021/12/12 01:42:02;;;;;;;67.75;39.45;;;4.10;99.90;;;;;;4928829;28;87810;-31
2021/12/12 01:44:37;;;;;;;63.03;39.07;;;4.20;99.90;;;;;;4929384;28;90209;-29
2021/12/12 01:47:32;;;;;;;51.28;38.10;;;4.20;99.90;;;;;;4928707;28;88331;-32
2021/12/12 01:50:01;;;;;;;51.78;37.17;;;4.20;99.90;;;;;;4923187;28;88549;-38
2021/12/12 01:52:29;;;;;;;57.47;38.15;;;4.20;99.90;;;;;;4927370;28;88351;-37
2021/12/12 01:55:00;;;;;;;54.70;38.83;;;4.30;99.90;;;;;;4929177;28;89239;-33
2021/12/12 01:57:32;;;;;;;52.97;36.88;;;4.20;99.90;;;;;;4928782;28;88296;-33
2021/12/12 02:00:00;;;;;;;58.33;36.35;;;4.20;99.90;;;;;;4928135;28;88456;-36
2021/12/12 02:02:31;;;;;;;56.17;39.63;;;4.20;99.90;;;;;;4928799;28;88240;-36
2021/12/12 02:05:02;;;;;;;50.00;33.28;;;4.20;99.90;;;;;;4926988;28;92388;-35
2021/12/12 02:07:32;;;;;;;50.30;36.33;;;4.30;99.90;;;;;;4928989;28;89758;-31
2021/12/12 02:10:00;;;;;;;49.47;33.80;;;4.20;99.90;;;;;;4927852;28;87551;-33
2021/12/12 02:12:26;;;;;;;53.88;32.60;;;4.30;99.90;;;;;;4926844;28;88283;-37
2021/12/12 02:14:53;;;;;;;54.40;35.00;;;4.30;99.90;;;;;;4928573;28;90162;-36
2021/12/12 02:17:29;;;;;;;58.58;34.95;;;4.30;99.90;;;;;;4927278;28;87990;-35
2021/12/12 02:35:52;;;;;;;41.92;31.10;;;4.40;99.90;;;;;;4926176;28;89049;-37
2021/12/12 02:38:23;;;;;;;48.22;32.55;;;4.30;99.90;;;;;;4927806;28;89118;-36
2021/12/12 02:41:00;;;;;;;47.72;33.08;;;4.30;99.90;;;;;;4928300;28;88486;-33
2021/12/12 02:43:29;;;;;;;42.08;31.98;;;4.30;99.90;;;;;;4926936;28;88365;-40
2021/12/12 02:45:57;;;;;;;46.45;33.15;;;4.40;99.90;;;;;;4928838;28;88640;-34
2021/12/12 02:48:32;;;;;;;48.38;31.38;;;4.30;99.90;;;;;;4927991;28;89241;-39
2021/12/12 02:51:01;;;;;;;43.00;29.58;;;4.30;99.90;;;;;;4926304;28;88091;-38
2021/12/12 02:53:31;;;;;;;39.35;30.38;;;4.30;99.90;;;;;;4928228;28;88634;-33
2021/12/12 02:56:02;;;;;;;38.97;28.52;;;4.30;99.90;;;;;;4927778;28;90691;-33
2021/12/12 02:58:28;;;;;;;43.55;27.75;;;4.40;99.90;;;;;;4927682;28;92176;-35
2021/12/12 03:00:53;;;;;;;39.47;26.98;;;4.40;99.90;;;;;;4927415;28;87832;-36
2021/12/12 03:03:19;;;;;;;43.97;28.65;;;4.40;99.90;;;;;;4928101;28;88475;-34
2021/12/12 03:05:47;;;;;;;36.10;28.75;;;4.40;99.90;;;;;;4927185;28;90478;-31
2021/12/12 03:08:14;;;;;;;33.33;27.10;;;4.40;99.90;;;;;;4926172;28;89799;-40
2021/12/12 03:10:42;;;;;;;31.92;25.35;;;4.50;99.90;;;;;;4926722;28;89510;-36
2021/12/12 03:13:10;;;;;;;34.05;25.48;;;4.50;99.90;;;;;;4927831;28;88401;-35
2021/12/12 03:15:38;;;;;;;33.90;25.60;;;4.40;99.90;;;;;;4925842;28;91129;-35
2021/12/12 03:18:06;;;;;;;;;;;4.50;99.90;;;;;;4927810;28;90131;-33
2021/12/12 03:20:35;;;;;;;31.10;23.80;;;4.40;99.90;;;;;;4929925;28;88297;-36
2021/12/12 03:23:17;;;;;;;36.63;24.98;;;4.50;99.90;;;;;;4927569;28;88590;-40
2021/12/12 03:25:45;;;;;;;32.63;26.13;;;4.50;99.90;;;;;;4927572;28;91143;-31
2021/12/12 03:28:16;;;;;;;36.60;24.38;;;4.60;99.90;;;;;;4927325;28;89988;-33
2021/12/12 03:30:43;;;;;;;30.60;23.70;;;4.60;99.90;;;;;;4926914;28;88259;-33
2021/12/12 03:33:09;;;;;;;32.53;25.53;;;4.50;99.90;;;;;;4926458;28;88263;-34
2021/12/12 03:35:35;;;;;;;30.48;20.70;;;4.60;99.90;;;;;;4912933;28;90791;-40
2021/12/12 03:38:01;;;;;;;31.92;24.73;;;4.70;99.90;;;;;;4907854;28;90481;-36
2021/12/12 03:40:33;;;;;;;45.33;25.75;;;4.60;99.90;;;;;;4908178;28;87603;-36
2021/12/12 03:43:00;;;;;;;40.13;25.75;;;4.50;99.90;;;;;;4907442;28;88911;-33
2021/12/12 03:45:28;;;;;;;31.25;21.88;;;4.50;99.90;;;;;;4890827;28;90159;-40
2021/12/12 03:47:58;;;;;;;31.38;23.63;;;4.50;99.90;;;;;;4907293;28;89641;-31
2021/12/12 03:50:32;;;;;;;32.47;22.73;;;4.60;99.90;;;;;;4908062;28;87639;-35
2021/12/12 03:52:58;;;;;;;28.35;23.02;;;4.70;99.90;;;;;;4906107;28;88265;-36
2021/12/12 03:55:26;;;;;;;35.88;21.17;;;4.70;99.90;;;;;;4908286;28;89695;-36
2021/12/12 03:57:53;;;;;;;22.98;18.63;;;4.70;99.90;;;;;;4908030;28;88684;-34
2021/12/12 04:00:25;;;;;;;33.08;21.42;;;4.70;99.90;;;;;;4906141;28;88641;-37
2021/12/12 04:02:51;;;;;;;31.50;22.38;;;4.70;99.90;;;;;;4907427;28;88669;-33
2021/12/12 04:05:17;;;;;;;33.30;21.00;;;4.80;99.90;;;;;;4905786;28;88540;-33
2021/12/12 04:07:44;;;;;;;33.08;22.60;;;4.80;99.90;;;;;;4906456;28;88267;-39
2021/12/12 04:10:13;;;;;;;26.70;19.45;;;4.80;99.90;;;;;;4908282;28;88113;-32
2021/12/12 04:12:40;;;;;;;36.08;22.90;;;4.80;99.90;;;;;;4907750;28;88333;-33
2021/12/12 04:15:06;;;;;;;28.80;22.05;;;4.70;99.90;;;;;;4907481;28;88988;-35
2021/12/12 04:17:32;;;;;;;31.63;18.90;;;4.80;99.90;;;;;;4907393;28;89251;-36
2021/12/12 04:20:08;;;;;;;25.67;22.13;;;4.80;99.90;;;;;;4907426;28;88939;-39
2021/12/12 04:22:34;;;;;;;25.73;20.80;;;4.80;99.90;;;;;;4906997;28;87595;-33
2021/12/12 04:25:00;;;;;;;36.45;22.95;;;4.80;99.90;;;;;;4907864;28;90475;-35
2021/12/12 04:27:26;;;;;;;25.73;19.52;;;4.80;99.90;;;;;;4905757;28;89612;-38
2021/12/12 04:29:53;;;;;;;29.00;20.98;;;4.90;99.90;;;;;;4907036;28;88005;-34
2021/12/12 04:32:25;;;;;;;26.30;20.60;;;4.80;99.90;;;;;;4907633;28;88716;-33
2021/12/12 04:34:58;;;;;;;34.80;21.05;;;5.00;99.90;;;;;;4907261;28;88896;-33
2021/12/12 04:37:25;;;;;;;31.85;20.92;;;4.90;99.90;;;;;;4908028;28;89371;-32
2021/12/12 04:39:54;;;;;;;26.45;18.88;;;4.90;99.90;;;;;;4907396;28;88816;-41
2021/12/12 04:42:25;;;;;;;31.10;17.92;;;4.90;99.90;;;;;;4907912;28;88684;-37
2021/12/12 04:44:55;;;;;;;19.20;15.45;;;4.80;99.90;;;;;;4907011;28;88740;-41
2021/12/12 04:50:25;;;;;;;22.73;15.73;;;4.90;99.90;;;;;;4907810;28;88160;-37
2021/12/12 04:53:10;;;;;;;25.65;17.92;;;4.90;99.90;;;;;;4906410;28;88497;-38
2021/12/12 04:55:52;;;;;;;23.85;18.33;;;5.00;99.90;;;;;;4908702;28;90134;-35
2021/12/12 04:58:36;;;;;;;27.23;17.52;;;4.90;99.90;;;;;;4908745;28;90264;-35
2021/12/12 05:01:09;;;;;;;32.28;17.60;;;4.90;99.90;;;;;;4911515;28;87878;-35
2021/12/12 05:03:56;;;;;;;22.38;17.40;;;5.00;99.90;;;;;;4909174;28;88959;-40
2021/12/12 05:06:58;;;;;;;20.08;17.30;;;5.00;99.90;;;;;;4909523;28;90224;-35
2021/12/12 05:09:35;;;;;;;20.52;14.95;;;4.90;99.90;;;;;;4909386;28;90529;-36
2021/12/12 05:12:31;;;;;;;21.15;16.08;;;5.00;99.90;;;;;;4910541;28;87897;-37
2021/12/12 05:15:06;;;;;;;19.77;16.83;;;4.90;99.90;;;;;;4909075;28;88236;-35
2021/12/12 05:17:40;;;;;;;25.45;15.35;;;5.00;99.90;;;;;;4910604;28;88891;-33
2021/12/12 05:20:12;;;;;;;24.77;15.77;;;5.00;99.90;;;;;;4909110;28;89730;-36
2021/12/12 05:22:44;;;;;;;20.95;16.13;;;4.90;99.90;;;;;;4910442;28;88149;-36
2021/12/12 05:25:17;;;;;;;20.20;14.68;;;4.90;99.90;;;;;;4911371;28;88886;-38
2021/12/12 05:27:43;;;;;;;20.17;16.08;;;5.00;99.90;;;;;;4909782;28;90473;-37
2021/12/12 05:30:20;;;;;;;18.92;14.82;;;5.10;99.90;;;;;;4910912;28;90499;-35
2021/12/12 05:32:47;;;;;;;20.08;15.65;;;5.00;99.90;;;;;;4909975;28;88609;-33
2021/12/12 05:35:15;;;;;;;22.75;14.95;;;5.10;99.90;;;;;;4909968;28;88167;-32
2021/12/12 05:37:42;;;;;;;16.35;14.57;;;5.00;99.90;;;;;;4909545;28;90262;-33
2021/12/12 05:40:09;;;;;;;18.80;15.75;;;5.00;99.90;;;;;;4909569;28;89729;-36
2021/12/12 05:42:37;;;;;;;12.82;11.45;;;5.00;99.90;;;;;;4910235;28;88838;-35
2021/12/12 05:45:06;;;;;;;14.80;13.23;;;5.10;99.90;;;;;;4924814;28;88743;-37
2021/12/12 05:47:32;;;;;;;14.93;12.63;;;5.10;99.90;;;;;;4910277;28;90207;-37
2021/12/12 05:49:58;;;;;;;14.85;13.13;;;5.10;99.90;;;;;;4910180;28;88514;-37
2021/12/12 05:52:24;;;;;;;14.88;12.88;;;5.10;99.90;;;;;;4911086;28;87903;-35
2021/12/12 05:54:52;;;;;;;13.60;12.27;;;5.00;99.90;;;;;;4909514;28;89527;-32
2021/12/12 05:57:24;;;;;;;13.68;11.98;;;5.10;99.90;;;;;;4908894;28;90511;-37
2021/12/12 05:59:51;;;;;;;17.50;12.20;;;5.20;99.90;;;;;;4909764;28;90198;-37
2021/12/12 06:02:17;;;;;;;13.05;11.82;;;5.20;99.90;;;;;;4910808;28;87836;-41
2021/12/12 06:04:43;;;;;;;16.02;11.75;;;5.20;99.90;;;;;;4909396;28;88129;-34
2021/12/12 06:07:17;;;;;;;14.70;11.45;;;5.20;99.90;;;;;;4907720;28;90692;-32
2021/12/12 06:09:45;;;;;;;18.13;11.85;;;5.30;99.90;;;;;;4924029;28;88587;-33
2021/12/12 06:12:12;;;;;;;11.13;10.02;;;5.20;99.90;;;;;;4910358;28;88284;-38
2021/12/12 06:14:38;;;;;;;12.27;10.60;;;5.20;99.90;;;;;;4909368;28;87607;-33
2021/12/12 06:17:10;;;;;;;14.20;9.15;;;5.30;99.90;;;;;;4910373;28;89954;-36
2021/12/12 06:19:37;;;;;;;14.23;11.10;;;5.30;99.90;;;;;;4909490;28;88898;-36
2021/12/12 06:22:04;;;;;;;11.50;10.40;;;5.40;99.90;;;;;;4909383;28;88489;-38
2021/12/12 06:24:31;;;;;;;11.32;9.63;;;5.30;99.90;;;;;;4909096;28;87968;-36
2021/12/12 06:27:06;;;;;;;10.27;9.30;;;5.30;99.90;;;;;;4910797;28;90244;-36
2021/12/12 06:29:32;;;;;;;13.05;10.45;;;5.30;99.90;;;;;;4910005;28;89702;-34
2021/12/12 06:31:58;;;;;;;10.02;9.02;;;5.30;99.90;;;;;;4909691;28;88202;-36
2021/12/12 06:34:24;;;;;;;10.10;9.10;;;5.40;99.90;;;;;;4909934;28;87585;-36
2021/12/12 06:36:52;;;;;;;10.40;9.40;;;5.30;99.90;;;;;;4910638;28;90698;-36
2021/12/12 06:39:18;;;;;;;10.90;9.30;;;5.30;99.90;;;;;;4908949;28;91376;-34
2021/12/12 06:41:45;;;;;;;10.00;9.00;;;5.30;99.90;;;;;;4910617;28;87566;-34
2021/12/12 06:44:12;;;;;;;8.98;8.25;;;5.30;99.90;;;;;;4908733;28;88563;-41
2021/12/12 06:46:40;;;;;;;10.63;9.57;;;5.30;99.90;;;;;;4910590;28;89956;-33
2021/12/12 06:49:10;;;;;;;10.82;9.82;;;5.30;99.90;;;;;;4909718;28;88413;-33
2021/12/12 06:51:40;;;;;;;11.93;10.70;;;5.30;99.90;;;;;;4908880;28;89813;-38
2021/12/12 06:54:06;;;;;;;10.60;9.55;;;5.30;99.90;;;;;;4923109;28;88057;-37
2021/12/12 06:56:32;;;;;;;13.05;10.52;;;5.30;99.90;;;;;;4909563;28;88955;-38
2021/12/12 06:59:00;;;;;;;9.38;8.55;;;5.40;99.90;;;;;;4908956;28;90519;-36
2021/12/12 07:01:32;;;;;;;10.63;9.27;;;5.40;99.90;;;;;;4909258;28;88803;-32
2021/12/12 07:03:59;;;;;;;9.23;8.35;;;5.40;99.90;;;;;;4909875;28;87931;-38
2021/12/12 07:06:26;;;;;;;10.38;9.18;;;5.40;99.90;;;;;;4910758;28;90026;-35
2021/12/12 07:08:56;;;;;;;11.47;10.43;;;5.40;99.90;;;;;;4909147;28;89683;-34
2021/12/12 07:11:26;;;;;;;9.25;8.23;;;5.40;99.90;;;;;;4908764;28;88839;-37
2021/12/12 07:13:52;;;;;;;9.07;8.07;;;5.40;99.90;;;;;;4909227;28;88709;-35
2021/12/12 07:16:20;;;;;;;12.15;8.38;;;5.50;99.90;;;;;;4909168;28;90253;-40
2021/12/12 07:18:47;;;;;;;11.40;10.40;;;5.50;99.90;;;;;;4907887;28;89712;-33
2021/12/12 07:21:14;;;;;;;11.50;10.45;;;5.40;99.90;;;;;;4909086;28;87449;-36
2021/12/12 07:23:42;;;;;;;12.97;9.77;;;5.40;99.90;;;;;;4907600;28;87630;-37
2021/12/12 07:26:11;;;;;;;9.87;8.87;;;5.40;99.90;;;;;;4908162;28;92957;-39
2021/12/12 07:28:38;;;;;;;9.25;8.45;;;5.50;99.90;;;;;;4908717;28;91358;-40
2021/12/12 07:31:07;;;;;;;10.27;9.38;;;5.50;99.90;;;;;;4910439;28;87832;-35
2021/12/12 07:33:33;;;;;;;9.88;7.85;;;5.50;99.90;;;;;;4908630;28;87693;-33
2021/12/12 07:36:01;;;;;;;9.85;8.82;;;5.60;99.90;;;;;;4907690;28;90605;-38
2021/12/12 07:38:29;;;;;;;10.32;9.45;;;5.60;99.90;;;;;;4909153;28;89434;-39
2021/12/12 07:40:56;;;;;;;11.13;9.93;;;5.60;99.90;;;;;;4910367;28;87727;-35
2021/12/12 07:43:23;;;;;;;9.53;8.63;;;5.50;99.90;;;;;;4913115;28;90608;-31
2021/12/12 07:45:49;;;;;;;10.05;9.13;;;5.60;99.90;;;;;;4927573;28;90154;-37
2021/12/12 07:48:15;;;;;;;10.48;9.48;;;5.60;99.90;;;;;;4926853;28;89793;-31
2021/12/12 07:50:45;;;;;;;10.77;9.70;;;5.60;99.90;;;;;;4928781;28;87842;-37
2021/12/12 07:53:11;;;;;;;10.90;9.82;;;5.60;99.90;;;;;;4928670;28;89084;-35
2021/12/12 07:55:38;;;;;;;12.20;10.60;;;5.60;99.90;;;;;;4929221;28;90912;-35
2021/12/12 07:58:07;;;;;;;9.82;8.93;;;5.60;99.90;;;;;;4925293;28;89313;-36
2021/12/12 08:00:34;;;;;;;12.45;11.18;;;5.70;99.90;;;;;;4926474;28;88284;-40
2021/12/12 08:03:01;;;;;;;10.27;9.30;;;5.70;99.90;;;;;;4926251;28;87814;-40
2021/12/12 08:05:28;;;;;;;11.07;9.98;;;5.70;99.90;;;;;;4926077;28;93258;-37
2021/12/12 08:07:57;;;;;;;10.50;9.48;;;5.70;99.90;;;;;;4925568;28;88556;-37
2021/12/12 08:10:23;;;;;;;;;;;5.70;99.90;;;;;;4927789;28;88385;-35
2021/12/12 08:12:48;;;;;;;10.25;9.18;;;5.80;99.90;;;;;;4929396;28;87932;-32
2021/12/12 08:15:16;;;;;;;12.18;9.73;;;5.80;99.90;;;;;;4926569;28;90104;-34
2021/12/12 08:17:42;;;;;;;10.40;9.43;;;5.80;99.90;;;;;;4926377;28;88360;-39
2021/12/12 08:20:10;;;;;;;11.13;9.93;;;5.90;99.90;;;;;;4927086;28;87785;-34
2021/12/12 08:22:36;;;;;;;11.63;10.60;;;6.00;99.90;;;;;;4926081;28;87648;-36
2021/12/12 08:25:05;;;;;;;10.82;9.80;;;6.00;99.90;;;;;;4923916;28;90163;-41
2021/12/12 08:27:32;;;;;;;11.15;9.95;;;6.00;99.90;;;;;;4923847;28;88904;-36
2021/12/12 08:29:59;;;;;;;11.50;10.40;;;6.00;99.90;;;;;;4924122;28;89119;-35
2021/12/12 08:32:26;;;;;;;11.63;10.45;;;6.00;99.90;;;;;;4924324;28;87583;-35
2021/12/12 08:34:52;;;;;;;10.75;9.68;;;6.00;99.90;;;;;;4925503;28;88956;-38
2021/12/12 08:37:18;;;;;;;11.65;10.13;;;6.00;99.90;;;;;;4926995;28;89233;-36
2021/12/12 08:39:43;;;;;;;10.48;9.40;;;6.00;99.90;;;;;;4924785;28;88095;-35
2021/12/12 08:42:09;;;;;;;10.15;9.15;;;6.00;99.90;;;;;;4926228;28;88700;-37
2021/12/12 08:44:36;;;;;;;12.05;10.85;;;6.00;99.90;;;;;;4922734;28;90192;-37
2021/12/12 08:47:05;;;;;;;10.52;9.55;;;6.10;99.90;;;;;;4906386;28;89863;-34
2021/12/12 08:49:33;;;;;;;11.38;10.18;;;6.10;99.90;;;;;;4886455;28;88608;-40
2021/12/12 08:52:10;;;;;;;12.17;10.80;;;6.10;99.90;;;;;;4935346;28;88792;-39
2021/12/12 08:54:40;;;;;;;13.07;11.38;;;6.00;99.90;;;;;;4905745;28;90488;-37
2021/12/12 08:57:37;;;;;;;12.82;11.57;;;6.10;99.90;;;;;;4923722;28;88405;-33
2021/12/12 09:00:09;;;;;;;15.90;12.88;;;6.10;99.90;;;;;;4920525;28;87675;-39
2021/12/12 09:02:35;;;;;;;13.05;11.55;;;6.10;99.90;;;;;;4913757;28;88412;-39
2021/12/12 09:05:17;;;;;;;15.43;12.95;;;6.10;99.90;;;;;;4924824;28;90190;-37
2021/12/12 09:07:47;;;;;;;13.30;12.02;;;6.20;99.90;;;;;;4924504;28;88830;-36
2021/12/12 09:10:21;;;;;;;13.50;11.88;;;6.20;99.90;;;;;;4922078;28;88623;-41
2021/12/12 09:13:06;;;;;;;12.95;11.85;;;6.20;99.90;;;;;;4912996;28;89087;-35
2021/12/12 09:16:11;;;;;;;11.88;10.73;;;6.20;99.90;;;;;;4904428;28;91316;-40
2021/12/12 09:18:43;;;;;;;12.90;11.45;;;6.30;99.90;;;;;;4883913;28;90503;-36
2021/12/12 09:21:14;;;;;;;14.50;11.85;;;6.30;99.90;;;;;;4907317;28;88371;-38
2021/12/12 09:24:02;;;;;;;11.32;9.82;;;6.30;99.90;;;;;;4905252;28;88075;-38
2021/12/12 09:26:29;;;;;;;12.35;11.13;;;6.40;99.90;;;;;;4910320;28;88940;-34
2021/12/12 09:29:20;;;;;;;14.65;13.25;;;6.40;99.90;;;;;;4923711;28;88498;-36
2021/12/12 09:31:53;;;;;;;14.25;12.75;;;6.40;99.90;;;;;;4925007;28;88750;-36
2021/12/12 09:34:37;;;;;;;13.27;11.95;;;6.40;99.90;;;;;;4898565;28;87550;-33
2021/12/12 09:37:12;;;;;;;14.15;12.75;;;6.40;99.90;;;;;;4890558;28;90348;-36
2021/12/12 09:39:49;;;;;;;16.95;11.93;;;6.40;99.90;;;;;;4905070;28;90337;-33
2021/12/12 09:46:44;;;;;;;14.77;13.07;;;6.40;99.90;;;;;;4923794;28;87440;-35
2021/12/12 09:52:33;;;;;;;14.45;12.55;;;6.60;99.90;;;;;;4904584;28;89873;-36
2021/12/12 09:55:32;;;;;;;14.38;13.05;;;6.60;99.90;;;;;;4900793;28;87759;-36
2021/12/12 09:58:26;;;;;;;14.68;13.25;;;6.70;99.90;;;;;;4889381;28;88767;-36
2021/12/12 10:01:06;;;;;;;14.65;12.82;;;6.70;99.90;;;;;;4898028;28;90863;-34
2021/12/12 10:03:43;;;;;;;15.00;13.50;;;6.80;99.90;;;;;;4897225;28;88513;-37
2021/12/12 10:06:20;;;;;;;14.33;12.90;;;6.80;99.90;;;;;;4895984;28;90466;-39
2021/12/12 10:09:08;;;;;;;16.92;15.23;;;6.80;99.90;;;;;;4896918;28;88236;-33
2021/12/12 10:11:43;;;;;;;15.48;13.90;;;6.80;99.90;;;;;;4909855;28;90835;-36
2021/12/12 10:14:17;;;;;;;16.15;13.85;;;6.90;99.90;;;;;;4882824;28;91571;-38
2021/12/12 10:17:02;;;;;;;16.50;14.77;;;7.00;99.90;;;;;;4908360;28;89325;-37
2021/12/12 10:19:36;;;;;;;15.88;14.23;;;7.00;99.90;;;;;;4896988;28;88730;-35
2021/12/12 10:22:01;;;;;;;19.20;14.50;;;7.10;99.90;;;;;;4913202;28;89833;-34
2021/12/12 10:24:31;;;;;;;14.23;12.73;;;7.10;99.90;;;;;;4899087;28;88601;-37
2021/12/12 10:27:14;;;;;;;15.10;13.30;;;7.20;99.90;;;;;;4896264;28;89085;-36
2021/12/12 10:29:52;;;;;;;18.88;15.50;;;7.20;99.90;;;;;;4912384;28;89718;-37
2021/12/12 10:32:25;;;;;;;18.30;15.00;;;7.20;99.90;;;;;;4925684;28;89007;-35
2021/12/12 10:35:10;;;;;;;16.13;14.10;;;7.30;99.90;;;;;;4906238;28;91226;-39
2021/12/12 10:37:45;;;;;;;15.35;13.93;;;7.30;99.90;;;;;;4913306;28;89006;-40
2021/12/12 10:40:16;;;;;;;15.93;14.10;;;7.30;99.90;;;;;;4905114;28;88622;-35
2021/12/12 10:42:49;;;;;;;14.70;13.15;;;7.40;99.90;;;;;;4922016;28;90737;-41
2021/12/12 10:45:31;;;;;;;18.15;14.10;;;7.40;99.90;;;;;;4898968;28;90096;-36
2021/12/12 10:48:04;;;;;;;17.20;13.68;;;7.50;99.90;;;;;;4900732;28;89881;-41
2021/12/12 10:51:01;;;;;;;16.35;12.55;;;7.50;99.90;;;;;;4906008;28;89390;-38
2021/12/12 10:53:35;;;;;;;15.50;12.60;;;7.50;99.90;;;;;;4911455;28;90689;-37
2021/12/12 10:56:16;;;;;;;14.75;12.82;;;7.60;99.90;;;;;;4907936;28;89413;-38
2021/12/12 10:58:51;;;;;;;16.63;13.13;;;7.60;99.90;;;;;;4901541;28;88829;-37
2021/12/12 11:01:29;;;;;;;14.43;12.65;;;7.60;99.90;;;;;;4907112;28;89179;-36
2021/12/12 11:04:09;;;;;;;13.95;12.20;;;7.70;99.90;;;;;;4904959;28;90041;-38
2021/12/12 11:06:38;;;;;;;14.45;12.98;;;7.70;99.90;;;;;;4909542;28;89973;-39
2021/12/12 11:09:12;;;;;;;16.25;12.70;;;7.80;99.90;;;;;;4901778;28;88802;-34
2021/12/12 11:11:49;;;;;;;14.82;13.27;;;7.80;99.90;;;;;;4892985;28;89868;-41
2021/12/12 11:14:26;;;;;;;17.17;13.32;;;7.90;99.90;;;;;;4913633;28;90320;-38
2021/12/12 11:17:09;;;;;;;20.27;13.00;;;7.90;99.90;;;;;;4913896;28;90038;-35
2021/12/12 11:19:40;;;;;;;14.98;13.23;;;7.90;99.90;;;;;;4925164;28;88830;-37
2021/12/12 11:22:24;;;;;;;14.48;12.15;;;7.90;99.90;;;;;;4925151;28;88573;-37
2021/12/12 11:24:58;;;;;;;13.40;11.98;;;8.00;99.90;;;;;;4903340;28;89941;-38
2021/12/12 11:27:34;;;;;;;11.57;10.38;;;8.00;99.90;;;;;;4913460;28;89909;-38
2021/12/12 11:30:10;;;;;;;13.15;11.77;;;8.00;99.90;;;;;;4903745;28;89546;-40
2021/12/12 11:32:37;;;;;;;13.15;11.75;;;8.00;99.90;;;;;;4917553;28;87623;-36
2021/12/12 11:35:06;;;;;;;12.07;10.75;;;8.10;99.90;;;;;;4900697;28;90380;-36
2021/12/12 11:38:03;;;;;;;15.57;12.48;;;8.10;99.90;;;;;;4908320;28;90161;-38
2021/12/12 11:40:48;;;;;;;12.05;10.85;;;8.10;99.90;;;;;;4910413;28;89549;-35
2021/12/12 11:43:41;;;;;;;12.48;11.18;;;8.10;99.90;;;;;;4916887;28;88519;-39
2021/12/12 11:46:20;;;;;;;12.88;11.02;;;8.20;99.90;;;;;;4919902;28;89053;-41
2021/12/12 11:49:16;;;;;;;14.35;10.88;;;8.30;99.90;;;;;;4927429;28;90747;-39
2021/12/12 11:51:58;;;;;;;14.70;11.60;;;8.30;99.90;;;;;;4900682;28;88912;-37
2021/12/12 11:54:58;;;;;;;11.75;10.57;;;8.30;99.90;;;;;;4909068;28;88424;-38
2021/12/12 12:00:21;;;;;;;13.07;11.32;;;8.30;99.90;;;;;;4901830;22;88184;-79
2021/12/12 12:03:09;;;;;;;13.68;11.18;;;8.40;99.90;;;;;;4896650;28;88149;-81
2021/12/12 12:06:14;;;;;;;13.48;11.95;;;8.40;99.90;;;;;;4918425;28;88384;-79
2021/12/12 12:09:06;;;;;;;13.38;10.70;;;8.50;99.90;;;;;;4899092;28;91542;-77
2021/12/12 12:28:03;;;;;;;8.63;7.55;;;8.90;99.90;;;;;;5028804;22;88539;-78
2021/12/12 12:45:31;;;;;;;8.85;7.65;;;9.30;99.90;;;;;;5027890;27;87870;-37
2021/12/12 12:48:44;;;;;;;9.75;8.82;;;9.20;99.90;;;;;;5024620;27;89344;-40
2021/12/12 12:51:33;;;;;;;8.68;7.88;;;9.10;99.90;;;;;;5023720;27;88529;-36
2021/12/12 12:54:31;;;;;;;11.25;9.43;;;9.00;99.90;;;;;;5026131;27;90059;-40
2021/12/12 12:57:27;;;;;;;9.70;8.88;;;9.00;99.90;;;;;;4897144;27;87899;-38
2021/12/12 13:00:06;;;;;;;12.10;10.88;;;9.00;99.90;;;;;;4985552;28;89372;-37
2021/12/12 13:02:54;;;;;;;10.40;9.32;;;9.00;99.90;;;;;;4975834;28;92152;-41
2021/12/12 13:05:48;;;;;;;12.70;9.80;;;9.00;99.90;;;;;;4963660;28;91566;-39
2021/12/12 13:08:52;;;;;;;12.52;10.35;;;9.00;99.90;;;;;;4979399;28;88356;-42
2021/12/12 13:11:25;;;;;;;10.80;9.70;;;8.90;99.90;;;;;;4996101;28;87839;-44
2021/12/12 13:14:08;;;;;;;11.35;9.98;;;9.00;99.90;;;;;;4995110;28;90351;-40
2021/12/12 13:16:40;;;;;;;10.98;9.98;;;9.00;99.90;;;;;;5010742;28;89511;-42
2021/12/12 13:19:18;;;;;;;10.55;9.52;;;9.00;99.90;;;;;;4996246;28;87549;-41
2021/12/12 13:22:29;;;;;;;11.63;10.27;;;9.00;99.90;;;;;;4979393;28;88708;-43
2021/12/12 13:24:58;;;;;;;9.98;8.98;;;9.00;99.90;;;;;;4978333;28;90459;-41
2021/12/12 13:28:19;;;;;;;10.88;9.27;;;9.00;99.90;;;;;;4997391;28;89281;-42
2021/12/12 13:31:05;;;;;;;12.50;10.95;;;9.00;99.90;;;;;;4995046;28;89005;-42
2021/12/12 13:33:45;;;;;;;9.93;8.90;;;9.00;99.90;;;;;;4978495;28;89456;-40
2021/12/12 13:36:40;;;;;;;10.88;9.88;;;9.00;99.90;;;;;;4998388;28;89481;-39
2021/12/12 13:39:42;;;;;;;12.98;11.23;;;9.10;99.90;;;;;;4978890;28;90482;-40
2021/12/12 13:42:48;;;;;;;11.18;9.25;;;9.10;99.90;;;;;;4984004;28;88612;-37
2021/12/12 13:45:36;;;;;;;12.93;10.45;;;9.10;99.90;;;;;;4960471;28;88253;-41
2021/12/12 13:48:11;;;;;;;;;;;9.20;99.90;;;;;;4996949;28;90761;-39
2021/12/12 13:50:49;;;;;;;16.45;11.68;;;9.10;99.90;;;;;;4997973;28;90082;-39
2021/12/12 13:53:51;;;;;;;14.00;11.70;;;9.20;99.90;;;;;;4948162;28;89583;-38
2021/12/12 13:56:49;;;;;;;10.45;9.40;;;9.20;99.90;;;;;;4982315;28;88472;-41
2021/12/12 13:59:22;;;;;;;11.00;9.80;;;9.20;99.90;;;;;;4983318;28;90616;-40
2021/12/12 14:02:00;;;;;;;11.88;10.68;;;9.20;99.90;;;;;;4984032;28;88409;-37
2021/12/12 14:04:55;;;;;;;12.63;10.90;;;9.20;99.90;;;;;;4983047;28;88524;-41
2021/12/12 14:07:30;;;;;;;13.38;11.77;;;9.30;99.90;;;;;;4983409;28;87907;-40
2021/12/12 14:10:00;;;;;;;12.43;11.32;;;9.30;99.90;;;;;;4973397;28;88901;-36
2021/12/12 14:12:29;;;;;;;11.40;10.18;;;9.30;99.90;;;;;;4983155;28;89760;-41
2021/12/12 14:15:06;;;;;;;11.27;10.07;;;9.30;99.90;;;;;;4981093;28;89732;-37
2021/12/12 14:17:48;;;;;;;12.35;11.07;;;9.30;99.90;;;;;;4982433;28;88135;-39
2021/12/12 14:20:44;;;;;;;11.00;9.93;;;9.40;99.90;;;;;;4964303;28;90643;-39
2021/12/12 14:23:19;;;;;;;11.38;9.65;;;9.40;99.90;;;;;;4982793;28;89703;-39